Hartleyville, Indiana
Current Conditions -  °F | °C
As of 5:53 AM on Saturday 25 Oct 2014 (Local Time) from KBMG Reporting Station
Broken Clouds Broken Clouds  
Wind Chill: 56°   Ceiling: 3600
Heat Index: 56°   Visibility: 10mi
Dew Point: 52°   Wind: 6mph
Humidity: 87%   Direction: 210°SSW
Pressure: 29.98"   Gusts: NA
Location:  38.8737°N, 86.4563°W
Report Text: KBMG 250953Z 21005KT 10SM BKN036 13/11 A2998 RMK AO2 SLP149 T01330111
Loading
Personal Weather Stations






























Interactive Weather Map
Tropical Storm Tracking
New forecast layout! Learn more

10-Day Weather Forecast

Advertisements
Track Severe Weather on mobile